Time;durP1;ratioP1;P1;durP2;ratioP2;P2;SDS_P1;SDS_P2;PMS_P1;PMS_P2;Temp;Humidity;BMP_temperature;BMP_pressure;BME280_temperature;BME280_humidity;BME280_pressure;Samples;Min_cycle;Max_cycle;Signal;HPM_P1;HPM_P2
2022/09/05 00:01:51;;;;;;;2.00;1.90;;;24.60;50.80;;;;;;5041430;28;20382;-80
2022/09/05 00:04:36;;;;;;;2.90;2.10;;;24.60;50.90;;;;;;5023974;28;20467;-80
2022/09/05 00:07:29;;;;;;;2.37;1.73;;;24.60;50.90;;;;;;5040224;28;20446;-79
2022/09/05 00:09:55;;;;;;;1.87;1.70;;;24.50;50.80;;;;;;5039837;28;20418;-80
2022/09/05 00:12:24;;;;;;;2.13;1.93;;;24.60;50.80;;;;;;5040743;28;20404;-80
2022/09/05 00:18:47;;;;;;;1.93;1.77;;;24.60;50.80;;;;;;5000963;28;20499;-80
2022/09/05 00:21:33;;;;;;;2.03;1.93;;;24.60;50.80;;;;;;4982982;28;20448;-80
2022/09/05 00:24:05;;;;;;;2.50;1.87;;;24.60;50.80;;;;;;4982535;28;20448;-79
2022/09/05 00:26:58;;;;;;;2.40;1.97;;;24.50;50.70;;;;;;4980707;28;20508;-79
2022/09/05 00:29:56;;;;;;;1.73;1.63;;;24.60;50.90;;;;;;4978546;28;20409;-79
2022/09/05 00:39:32;;;;;;;2.10;1.90;;;24.50;50.60;;;;;;4989197;28;20384;-80
2022/09/05 00:42:03;;;;;;;2.20;2.00;;;24.50;50.90;;;;;;4966690;28;20501;-80
2022/09/05 00:44:34;;;;;;;2.03;1.87;;;24.50;50.90;;;;;;4973364;28;20742;-80
2022/09/05 00:47:16;;;;;;;2.03;1.90;;;24.50;50.90;;;;;;4974246;28;20855;-80
2022/09/05 00:49:45;;;;;;;2.40;2.00;;;24.50;50.90;;;;;;4974101;28;20417;-81
2022/09/05 00:52:41;;;;;;;1.93;1.67;;;24.50;50.90;;;;;;4974606;28;20521;-81
2022/09/05 00:55:35;;;;;;;1.80;1.67;;;24.60;51.00;;;;;;4976079;28;20418;-81
2022/09/05 00:58:37;;;;;;;1.97;1.77;;;24.50;50.90;;;;;;4978951;28;20386;-80
2022/09/05 01:01:39;;;;;;;1.93;1.70;;;24.50;50.90;;;;;;5005608;28;20407;-80
2022/09/05 01:04:54;;;;;;;1.97;1.77;;;24.50;50.90;;;;;;4993296;28;20489;-80
2022/09/05 01:07:53;;;;;;;2.10;1.90;;;24.50;50.90;;;;;;4953035;28;20539;-80
2022/09/05 01:10:37;;;;;;;2.10;1.90;;;24.50;50.90;;;;;;5040240;28;20396;-80
2022/09/05 01:13:38;;;;;;;1.80;1.60;;;24.50;50.90;;;;;;5023368;28;20492;-80
2022/09/05 01:16:13;;;;;;;1.80;1.70;;;24.50;50.90;;;;;;5023099;28;20421;-80
2022/09/05 01:19:32;;;;;;;2.00;1.80;;;24.50;50.90;;;;;;5040183;28;20407;-80
2022/09/05 01:22:55;;;;;;;2.57;2.07;;;24.50;50.90;;;;;;4926280;29;20428;-81
2022/09/05 01:25:39;;;;;;;2.17;1.97;;;24.50;50.90;;;;;;4945148;29;20448;-80
2022/09/05 01:28:47;;;;;;;2.00;1.80;;;24.50;50.90;;;;;;4944646;29;20407;-80
2022/09/05 01:31:16;;;;;;;2.87;2.00;;;24.50;50.90;;;;;;4944387;29;20434;-81
2022/09/05 01:33:47;;;;;;;1.70;1.57;;;24.50;50.90;;;;;;4943994;29;20423;-81
2022/09/05 01:36:41;;;;;;;1.63;1.53;;;24.50;50.90;;;;;;4943555;29;20387;-81
2022/09/05 01:39:31;;;;;;;1.60;1.50;;;24.50;50.90;;;;;;4954705;29;20450;-81
2022/09/05 01:42:30;;;;;;;2.10;1.90;;;24.50;50.80;;;;;;4936858;29;20417;-80
2022/09/05 01:44:56;;;;;;;1.80;1.67;;;24.50;50.80;;;;;;4922326;29;20431;-80
2022/09/05 01:48:03;;;;;;;2.00;1.90;;;24.50;50.80;;;;;;4937124;29;20426;-80
2022/09/05 01:50:55;;;;;;;2.10;1.40;;;24.50;50.80;;;;;;4937149;29;20415;-80
2022/09/05 01:53:50;;;;;;;2.20;2.00;;;24.50;50.80;;;;;;4937552;29;20413;-80
2022/09/05 01:56:46;;;;;;;2.10;1.90;;;24.50;50.80;;;;;;4993264;28;20400;-80
2022/09/05 01:59:42;;;;;;;1.57;1.47;;;24.50;50.80;;;;;;5032929;28;20411;-80
2022/09/05 02:02:56;;;;;;;2.33;2.13;;;24.50;50.70;;;;;;5011654;28;20400;-80
2022/09/05 02:05:50;;;;;;;2.33;1.80;;;24.50;50.70;;;;;;5006631;28;20434;-80
2022/09/05 02:08:21;;;;;;;1.80;1.70;;;24.50;50.80;;;;;;4931004;29;20404;-80
2022/09/05 02:11:15;;;;;;;1.93;1.83;;;24.50;50.90;;;;;;4930675;29;20424;-80
2022/09/05 02:13:59;;;;;;;1.70;1.60;;;24.50;50.90;;;;;;4931928;29;20408;-80
2022/09/05 02:16:37;;;;;;;1.80;1.60;;;24.50;50.90;;;;;;4917066;29;20404;-80
2022/09/05 02:19:31;;;;;;;1.70;1.60;;;24.50;50.80;;;;;;4916410;29;20410;-80
2022/09/05 02:22:21;;;;;;;2.10;1.80;;;24.50;51.40;;;;;;4917142;29;20416;-80
2022/09/05 02:25:07;;;;;;;1.90;1.80;;;24.50;50.90;;;;;;4916962;29;20533;-79
2022/09/05 02:28:14;;;;;;;1.90;1.80;;;24.50;50.80;;;;;;4916976;29;20733;-80
2022/09/05 02:31:05;;;;;;;1.83;1.67;;;24.50;50.80;;;;;;4916081;29;20412;-79
2022/09/05 02:33:56;;;;;;;2.47;1.60;;;24.50;50.80;;;;;;4916063;29;20421;-80
2022/09/05 02:37:00;;;;;;;2.53;1.83;;;24.50;50.80;;;;;;4906763;29;20560;-80
2022/09/05 02:43:12;;;;;;;1.70;1.60;;;24.50;50.80;;;;;;4835863;29;20462;-80
2022/09/05 02:46:08;;;;;;;2.27;2.07;;;24.50;50.80;;;;;;4882392;29;20496;-80
2022/09/05 02:49:08;;;;;;;1.73;1.60;;;24.50;50.80;;;;;;4895313;29;20435;-80
2022/09/05 02:51:50;;;;;;;2.07;1.87;;;24.50;50.90;;;;;;4894742;29;20427;-79
2022/09/05 02:54:27;;;;;;;2.00;1.77;;;24.50;50.90;;;;;;4911443;29;20428;-80
2022/09/05 02:57:14;;;;;;;2.07;1.87;;;24.50;50.90;;;;;;4895308;29;20420;-80
2022/09/05 02:59:54;;;;;;;2.53;1.80;;;24.50;50.80;;;;;;4900292;29;20460;-80
2022/09/05 03:02:32;;;;;;;3.70;2.10;;;24.50;50.80;;;;;;4899610;29;20495;-80
2022/09/05 03:05:09;;;;;;;1.70;1.50;;;24.50;50.80;;;;;;4898900;29;20425;-80
2022/09/05 03:07:54;;;;;;;2.80;1.80;;;24.50;50.80;;;;;;4898271;29;20456;-80
2022/09/05 03:11:11;;;;;;;2.00;1.77;;;24.50;50.80;;;;;;4895746;29;20424;-80
2022/09/05 03:13:58;;;;;;;2.30;2.10;;;24.50;50.80;;;;;;4894727;29;20413;-79
2022/09/05 03:16:44;;;;;;;1.60;1.50;;;24.50;50.80;;;;;;4979543;28;20428;-79
2022/09/05 03:19:48;;;;;;;2.20;2.00;;;24.50;50.80;;;;;;5032274;28;20403;-80
2022/09/05 03:22:46;;;;;;;1.83;1.73;;;24.50;50.80;;;;;;5014611;28;20475;-80
2022/09/05 03:25:52;;;;;;;1.87;1.67;;;24.50;50.80;;;;;;5032764;28;20403;-81
2022/09/05 03:28:38;;;;;;;2.10;1.90;;;24.50;50.90;;;;;;4940539;29;20439;-81
2022/09/05 03:31:28;;;;;;;1.50;1.27;;;24.40;50.70;;;;;;4924343;29;20426;-81
2022/09/05 03:34:25;;;;;;;1.77;1.63;;;24.40;50.80;;;;;;4924039;29;20753;-81
2022/09/05 03:40:46;;;;;;;1.60;1.50;;;24.40;50.80;;;;;;4940226;29;20443;-81
2022/09/05 03:43:41;;;;;;;2.10;1.90;;;24.50;50.90;;;;;;4938949;29;20500;-81
2022/09/05 03:46:28;;;;;;;2.27;2.07;;;24.50;50.90;;;;;;4923793;29;20467;-81
2022/09/05 03:49:34;;;;;;;2.10;1.90;;;24.40;50.80;;;;;;4940112;29;20396;-81
2022/09/05 03:52:58;;;;;;;1.80;1.70;;;24.50;50.90;;;;;;4923609;29;20412;-81
2022/09/05 03:56:02;;;;;;;1.67;1.57;;;24.40;50.70;;;;;;4882472;29;20423;-81
2022/09/05 03:58:47;;;;;;;2.10;1.70;;;24.40;50.80;;;;;;4962942;28;20410;-81
2022/09/05 04:01:50;;;;;;;1.70;1.60;;;24.40;50.80;;;;;;5037524;28;20414;-82
2022/09/05 04:04:32;;;;;;;1.97;1.77;;;24.40;50.80;;;;;;5020167;28;21023;-81
2022/09/05 04:07:04;;;;;;;2.20;1.63;;;24.40;50.80;;;;;;5005575;28;20415;-82
2022/09/05 04:09:44;;;;;;;2.17;1.97;;;24.40;50.80;;;;;;5023220;28;20407;-83
2022/09/05 04:12:17;;;;;;;1.77;1.67;;;24.40;50.80;;;;;;5022961;28;20474;-83
2022/09/05 04:14:53;;;;;;;2.00;1.80;;;24.40;50.70;;;;;;5022017;28;20411;-83
2022/09/05 04:17:40;;;;;;;1.70;1.60;;;24.40;50.80;;;;;;5021210;28;20449;-83
2022/09/05 04:20:17;;;;;;;2.10;1.67;;;24.40;50.70;;;;;;5020766;28;20439;-83
2022/09/05 04:23:27;;;;;;;2.37;1.80;;;24.40;50.70;;;;;;5019758;28;20406;-82
2022/09/05 04:26:09;;;;;;;1.90;1.70;;;24.50;50.80;;;;;;5034770;28;20413;-82
2022/09/05 04:28:43;;;;;;;2.00;1.80;;;24.40;50.70;;;;;;5017950;28;20482;-82
2022/09/05 04:31:35;;;;;;;1.73;1.63;;;24.40;50.70;;;;;;5018261;28;20422;-82
2022/09/05 04:34:02;;;;;;;2.07;1.60;;;24.40;50.70;;;;;;5017768;28;20411;-83
2022/09/05 04:36:39;;;;;;;1.53;1.43;;;24.40;50.70;;;;;;5032860;28;20403;-82
2022/09/05 04:39:41;;;;;;;2.27;1.90;;;24.40;50.70;;;;;;5012850;28;20434;-83
2022/09/05 04:42:22;;;;;;;1.87;1.67;;;24.40;50.70;;;;;;4915905;29;20542;-83
2022/09/05 04:45:01;;;;;;;1.53;1.43;;;24.40;50.70;;;;;;4930824;29;20459;-83
2022/09/05 04:47:39;;;;;;;1.67;1.57;;;24.40;50.70;;;;;;4931394;29;20464;-84
2022/09/05 04:50:19;;;;;;;1.83;1.57;;;24.40;50.70;;;;;;4919487;29;20416;-81
2022/09/05 04:53:08;;;;;;;2.30;1.90;;;24.40;50.70;;;;;;4920973;29;20412;-81
2022/09/05 04:55:45;;;;;;;2.17;1.80;;;24.40;50.70;;;;;;4920214;29;20416;-81
2022/09/05 04:58:28;;;;;;;2.10;1.93;;;24.40;50.70;;;;;;4935797;29;20412;-83
2022/09/05 05:00:59;;;;;;;2.10;1.90;;;24.40;50.80;;;;;;4917606;29;20522;-83
2022/09/05 05:03:28;;;;;;;2.07;1.80;;;24.40;50.80;;;;;;4916321;29;20478;-83
2022/09/05 05:06:54;;;;;;;;;;;;;;;;;;;;;
2022/09/05 05:09:34;;;;;;;2.00;1.80;;;24.40;50.80;;;;;;4960026;29;20438;-83
2022/09/05 05:12:26;;;;;;;1.90;1.80;;;24.40;50.90;;;;;;4975693;29;20449;-83
2022/09/05 05:15:03;;;;;;;2.00;1.80;;;24.40;50.80;;;;;;4978516;29;20391;-82
2022/09/05 05:17:43;;;;;;;1.80;1.70;;;24.40;50.90;;;;;;5014037;28;20513;-82
2022/09/05 05:20:36;;;;;;;2.57;2.00;;;24.40;50.90;;;;;;5042639;28;20410;-82
2022/09/05 05:23:12;;;;;;;1.53;1.43;;;24.40;50.90;;;;;;5039247;28;20466;-82
2022/09/05 05:26:00;;;;;;;2.47;1.90;;;24.40;50.80;;;;;;5028050;28;20391;-82
2022/09/05 05:29:19;;;;;;;1.73;1.63;;;24.40;50.90;;;;;;5029678;28;20434;-80
2022/09/05 05:31:54;;;;;;;1.73;1.63;;;24.40;50.80;;;;;;4989446;28;20438;-80
2022/09/05 05:34:29;;;;;;;2.23;2.03;;;24.30;50.80;;;;;;5015362;28;20411;-80
2022/09/05 05:37:30;;;;;;;2.47;2.23;;;24.30;50.80;;;;;;5015192;28;20415;-80
2022/09/05 05:40:24;;;;;;;2.03;1.83;;;24.40;50.90;;;;;;5033016;28;20423;-81
2022/09/05 05:43:11;;;;;;;2.30;2.10;;;24.40;50.80;;;;;;5016128;28;20439;-81
2022/09/05 05:45:47;;;;;;;2.80;2.23;;;24.30;50.80;;;;;;5015563;28;20422;-81
2022/09/05 05:48:38;;;;;;;2.37;2.17;;;24.40;50.90;;;;;;5017893;28;20431;-81
2022/09/05 05:51:42;;;;;;;1.90;1.80;;;24.40;51.00;;;;;;5031603;28;20532;-81
2022/09/05 05:54:41;;;;;;;2.17;1.97;;;24.40;50.90;;;;;;5015120;28;20495;-81
2022/09/05 05:57:26;;;;;;;3.80;2.80;;;24.40;51.00;;;;;;5018011;28;20438;-81
2022/09/05 05:59:56;;;;;;;2.87;2.10;;;24.40;51.10;;;;;;5014829;28;20434;-82
2022/09/05 06:03:01;;;;;;;2.10;1.90;;;24.30;51.00;;;;;;5032479;28;20399;-81
2022/09/05 06:06:11;;;;;;;2.77;2.47;;;24.40;51.10;;;;;;5032751;28;20514;-82
2022/09/05 06:08:49;;;;;;;2.33;2.13;;;24.30;51.00;;;;;;5034223;28;20403;-83
2022/09/05 06:11:24;;;;;;;2.63;2.43;;;24.30;51.10;;;;;;5053000;28;20414;-83
2022/09/05 06:14:09;;;;;;;2.60;2.40;;;24.30;51.00;;;;;;5032131;28;20491;-83
2022/09/05 06:16:58;;;;;;;1.97;1.87;;;24.30;51.00;;;;;;5032808;28;20426;-82
2022/09/05 06:20:04;;;;;;;4.03;2.40;;;24.30;51.00;;;;;;5029263;28;20447;-82
2022/09/05 06:23:05;;;;;;;2.50;2.30;;;24.30;51.10;;;;;;4950957;29;20407;-83
2022/09/05 06:25:42;;;;;;;2.80;2.60;;;24.30;51.10;;;;;;5012328;28;20422;-83
2022/09/05 06:28:34;;;;;;;2.97;2.57;;;24.30;51.10;;;;;;5012927;28;20403;-83
2022/09/05 06:31:21;;;;;;;2.43;2.23;;;24.30;51.00;;;;;;5034063;28;20441;-82
2022/09/05 06:34:20;;;;;;;2.60;2.40;;;24.40;51.10;;;;;;5016978;28;20407;-83
2022/09/05 06:37:05;;;;;;;3.40;2.17;;;24.30;51.10;;;;;;5017311;28;20412;-82
2022/09/05 06:40:10;;;;;;;2.77;2.57;;;24.30;51.10;;;;;;5028015;28;20487;-82
2022/09/05 06:43:13;;;;;;;2.60;2.40;;;24.30;51.00;;;;;;5037570;28;20430;-82
2022/09/05 06:46:01;;;;;;;2.50;2.30;;;24.40;51.10;;;;;;5039843;28;20413;-82
2022/09/05 06:49:05;;;;;;;2.40;2.20;;;24.30;51.00;;;;;;5040505;28;20394;-82
2022/09/05 06:52:19;;;;;;;;;;;;;;;;;;;;;
2022/09/05 06:54:54;;;;;;;2.63;2.23;;;24.30;51.30;;;;;;5056604;28;20445;-83
2022/09/05 06:57:50;;;;;;;2.60;2.40;;;24.30;51.30;;;;;;5040211;28;20454;-83
2022/09/05 07:00:28;;;;;;;2.60;2.40;;;24.40;51.30;;;;;;5026989;28;20431;-83
2022/09/05 07:03:10;;;;;;;3.23;2.63;;;24.30;51.20;;;;;;5020655;28;20450;-83
2022/09/05 07:05:59;;;;;;;2.13;1.93;;;24.40;51.30;;;;;;5051367;28;20402;-83
2022/09/05 07:08:55;;;;;;;2.60;2.40;;;24.40;51.30;;;;;;5043981;28;20464;-83
2022/09/05 07:11:33;;;;;;;2.67;2.47;;;24.40;51.20;;;;;;5034117;28;20406;-82
2022/09/05 07:14:07;;;;;;;2.50;2.30;;;24.30;51.20;;;;;;5035106;28;20399;-82
2022/09/05 07:16:49;;;;;;;3.13;2.83;;;24.40;51.20;;;;;;5033862;28;20399;-83
2022/09/05 07:19:26;;;;;;;2.97;2.67;;;24.40;51.40;;;;;;5032941;28;20418;-83
2022/09/05 07:22:40;;;;;;;3.63;2.77;;;24.40;51.40;;;;;;5033204;28;20422;-83
2022/09/05 07:25:14;;;;;;;2.40;2.20;;;24.40;51.50;;;;;;5033728;28;20722;-83
2022/09/05 07:28:14;;;;;;;2.23;2.03;;;24.40;51.50;;;;;;5050739;28;20390;-83
2022/09/05 07:30:51;;;;;;;2.60;2.40;;;24.40;52.10;;;;;;5013078;28;20403;-83
2022/09/05 07:33:28;;;;;;;2.40;2.20;;;24.40;51.50;;;;;;5048468;28;20481;-83
2022/09/05 07:36:07;;;;;;;3.07;2.60;;;24.40;51.40;;;;;;5029600;28;20414;-82
2022/09/05 07:38:49;;;;;;;3.20;2.47;;;24.40;51.40;;;;;;5030416;28;20465;-83
2022/09/05 07:41:30;;;;;;;2.57;2.30;;;24.40;51.50;;;;;;5029295;28;20445;-83
2022/09/05 07:44:45;;;;;;;2.43;2.23;;;24.40;51.70;;;;;;5030632;28;20446;-83
2022/09/05 07:47:30;;;;;;;2.73;2.40;;;24.40;51.60;;;;;;4949455;29;20411;-81
2022/09/05 07:50:05;;;;;;;3.50;2.90;;;24.40;51.80;;;;;;4933746;29;20441;-81
2022/09/05 07:52:41;;;;;;;2.47;2.27;;;24.40;51.80;;;;;;4933125;29;20410;-81
2022/09/05 07:55:35;;;;;;;2.50;2.30;;;24.40;51.80;;;;;;4931588;29;20430;-80
2022/09/05 07:58:20;;;;;;;2.33;2.13;;;24.40;51.70;;;;;;4924250;29;20550;-80
2022/09/05 08:01:07;;;;;;;2.53;2.33;;;24.40;51.60;;;;;;4930470;29;20439;-80
2022/09/05 08:03:56;;;;;;;2.60;2.40;;;24.40;51.60;;;;;;4930643;29;20576;-79
2022/09/05 08:06:34;;;;;;;2.57;2.30;;;24.40;51.80;;;;;;4930468;29;20442;-80
2022/09/05 08:09:00;;;;;;;2.57;2.37;;;24.40;51.80;;;;;;4946346;29;20422;-80
2022/09/05 08:11:29;;;;;;;2.60;2.40;;;24.40;51.70;;;;;;4931112;29;20411;-80
2022/09/05 08:14:32;;;;;;;2.67;2.40;;;24.40;51.70;;;;;;4950221;29;20182;-80
2022/09/05 08:16:59;;;;;;;2.93;2.67;;;24.40;51.80;;;;;;4949877;29;20415;-80
2022/09/05 08:19:49;;;;;;;3.60;2.67;;;24.50;51.70;;;;;;4935055;29;20426;-79
2022/09/05 08:22:28;;;;;;;2.13;2.00;;;24.40;51.60;;;;;;4971951;28;20493;-80
2022/09/05 08:25:13;;;;;;;2.80;2.60;;;24.40;51.70;;;;;;5033203;28;20454;-81
2022/09/05 08:27:55;;;;;;;2.47;2.27;;;24.50;51.70;;;;;;5051892;28;20390;-81
2022/09/05 08:30:22;;;;;;;2.27;2.07;;;24.50;51.70;;;;;;5034498;28;20414;-80
2022/09/05 08:33:13;;;;;;;2.30;2.10;;;24.50;52.30;;;;;;5033629;28;20418;-81
2022/09/05 08:36:07;;;;;;;2.53;2.00;;;24.50;51.70;;;;;;5051220;28;20398;-80
2022/09/05 08:38:37;;;;;;;2.63;2.43;;;24.50;51.60;;;;;;5051255;28;20411;-80
2022/09/05 08:41:43;;;;;;;2.90;2.60;;;24.50;51.70;;;;;;5036551;28;20418;-80
2022/09/05 08:44:32;;;;;;;2.67;2.47;;;24.50;51.70;;;;;;5033765;28;20537;-80
2022/09/05 08:47:33;;;;;;;2.40;2.20;;;24.50;51.70;;;;;;4953212;29;20411;-80
2022/09/05 08:50:32;;;;;;;2.80;2.30;;;24.50;51.80;;;;;;4875860;29;20455;-81
2022/09/05 08:53:22;;;;;;;2.43;2.23;;;24.50;51.80;;;;;;4951325;29;20477;-81
2022/09/05 08:56:14;;;;;;;2.40;2.20;;;24.50;51.70;;;;;;4935034;29;20424;-80
2022/09/05 08:58:59;;;;;;;2.40;2.20;;;24.50;51.90;;;;;;4932798;29;20423;-80
2022/09/05 09:05:14;;;;;;;2.30;2.10;;;24.50;51.90;;;;;;4949338;29;20473;-80
2022/09/05 09:07:59;;;;;;;2.23;2.03;;;24.50;51.90;;;;;;4949977;29;20437;-80
2022/09/05 09:10:45;;;;;;;2.50;2.30;;;24.50;51.90;;;;;;4935018;29;20414;-79
2022/09/05 09:13:51;;;;;;;2.70;2.37;;;24.50;51.90;;;;;;4950590;29;20474;-80
2022/09/05 09:16:37;;;;;;;2.90;2.00;;;24.50;51.80;;;;;;4913642;29;20440;-80
2022/09/05 09:19:27;;;;;;;3.77;2.37;;;24.50;51.70;;;;;;4900239;29;20419;-81
2022/09/05 09:22:16;;;;;;;2.50;2.10;;;24.50;51.60;;;;;;4901427;29;20433;-80
2022/09/05 09:25:22;;;;;;;3.27;2.00;;;24.50;51.70;;;;;;4974083;28;20500;-81
2022/09/05 09:34:42;;;;;;;2.60;2.40;;;24.60;51.80;;;;;;4993450;28;20393;-80
2022/09/05 09:37:49;;;;;;;2.83;2.20;;;24.50;51.60;;;;;;4977430;28;20420;-81
2022/09/05 09:40:19;;;;;;;2.30;2.10;;;24.60;51.70;;;;;;4977297;28;20409;-81
2022/09/05 09:43:39;;;;;;;3.50;2.30;;;24.60;51.80;;;;;;4976713;28;20422;-80
2022/09/05 09:46:23;;;;;;;3.07;2.40;;;24.60;51.60;;;;;;4923102;29;20411;-81
2022/09/05 09:49:09;;;;;;;3.33;2.50;;;24.60;51.80;;;;;;4957921;29;20410;-80
2022/09/05 09:51:59;;;;;;;3.37;2.67;;;24.60;51.70;;;;;;4953701;29;20425;-80
2022/09/05 09:55:00;;;;;;;2.73;2.20;;;24.60;51.60;;;;;;4953594;29;20430;-80
2022/09/05 09:58:02;;;;;;;3.50;2.50;;;24.60;51.60;;;;;;4955458;29;20434;-80
2022/09/05 10:01:02;;;;;;;2.63;2.40;;;24.60;51.60;;;;;;4952639;29;20445;-80
2022/09/05 10:04:09;;;;;;;2.90;2.60;;;24.70;51.60;;;;;;4957677;29;20530;-81
2022/09/05 10:10:40;;;;;;;2.60;2.40;;;24.60;51.60;;;;;;4972905;29;20413;-82
2022/09/05 10:16:32;;;;;;;2.50;2.30;;;24.60;51.50;;;;;;4974969;28;20506;-81
2022/09/05 10:19:32;;;;;;;;;;;;;;;;;;;;;
2022/09/05 10:22:18;;;;;;;2.20;2.00;;;24.60;51.60;;;;;;5050562;28;20418;-82
2022/09/05 10:25:11;;;;;;;2.80;2.53;;;24.70;51.60;;;;;;5030396;28;20538;-82
2022/09/05 10:27:52;;;;;;;2.50;2.23;;;24.70;51.60;;;;;;5051073;28;20419;-81
2022/09/05 10:30:56;;;;;;;3.57;2.17;;;24.70;51.60;;;;;;5036841;28;20470;-82
2022/09/05 10:33:58;;;;;;;;;;;;;;;;;;;;;
2022/09/05 10:36:39;;;;;;;4.17;2.33;;;24.70;51.60;;;;;;5043821;28;20436;-83
2022/09/05 10:39:28;;;;;;;2.30;2.10;;;24.70;51.50;;;;;;5036072;28;20397;-82
2022/09/05 10:42:00;;;;;;;2.67;2.17;;;24.70;51.60;;;;;;5034878;28;20453;-82
2022/09/05 10:44:56;;;;;;;2.17;1.90;;;24.70;51.60;;;;;;5031200;28;20490;-82
2022/09/05 10:47:47;;;;;;;3.93;1.93;;;24.70;51.50;;;;;;4934360;29;20457;-83
2022/09/05 10:50:35;;;;;;;2.50;2.13;;;24.70;51.60;;;;;;4950917;29;20411;-83
2022/09/05 10:53:09;;;;;;;2.40;2.10;;;24.80;51.60;;;;;;4931020;29;20408;-83
2022/09/05 10:56:07;;;;;;;2.30;2.10;;;24.70;51.40;;;;;;4930806;29;20984;-83
2022/09/05 10:59:00;;;;;;;4.33;2.10;;;24.80;52.10;;;;;;4932132;29;20416;-83
2022/09/05 11:02:03;;;;;;;5.43;2.20;;;24.80;51.40;;;;;;4947650;29;20431;-83
2022/09/05 11:04:53;;;;;;;3.13;2.67;;;24.80;51.50;;;;;;4935538;29;20473;-83
2022/09/05 11:11:15;;;;;;;2.20;1.97;;;24.80;51.60;;;;;;4949770;29;20405;-83
2022/09/05 11:13:44;;;;;;;2.43;1.90;;;24.80;51.50;;;;;;4915142;29;20416;-83
2022/09/05 11:16:35;;;;;;;1.93;1.73;;;24.80;51.50;;;;;;4935845;29;20419;-83
2022/09/05 11:19:35;;;;;;;4.00;2.27;;;24.80;51.50;;;;;;4936531;29;20415;-83
2022/09/05 11:25:06;;;;;;;2.00;1.80;;;24.80;51.50;;;;;;5046380;28;20461;-83
2022/09/05 11:30:42;;;;;;;2.13;1.93;;;24.80;51.40;;;;;;5046728;28;20406;-82
2022/09/05 11:33:34;;;;;;;2.40;1.70;;;24.80;51.40;;;;;;5031595;28;20465;-82
2022/09/05 11:36:07;;;;;;;2.20;2.00;;;24.80;51.40;;;;;;5018918;28;20442;-81
2022/09/05 11:39:27;;;;;;;2.13;1.93;;;24.80;51.40;;;;;;5034306;28;20427;-80
2022/09/05 11:42:09;;;;;;;2.30;2.10;;;24.80;51.40;;;;;;4932281;29;20447;-80
2022/09/05 11:52:20;;;;;;;;;;;;;;;;;;;;;
2022/09/05 11:55:06;;;;;;;1.83;1.73;;;24.80;51.30;;;;;;5034835;28;20415;-80
2022/09/05 11:58:23;;;;;;;2.00;1.73;;;24.80;51.30;;;;;;5035596;28;20417;-81
2022/09/05 12:08:04;;;;;;;2.47;1.50;;;24.80;51.10;;;;;;4937357;29;21482;-81
2022/09/05 12:10:40;;;;;;;1.97;1.70;;;24.80;51.20;;;;;;4921460;29;20467;-80
2022/09/05 12:13:45;;;;;;;1.70;1.60;;;24.80;51.10;;;;;;4937964;29;20415;-81
2022/09/05 12:16:51;;;;;;;3.27;1.83;;;24.80;51.10;;;;;;4937811;29;20463;-81
2022/09/05 12:19:48;;;;;;;2.20;1.87;;;24.80;51.00;;;;;;4936360;29;20416;-81
2022/09/05 12:22:46;;;;;;;2.43;1.90;;;24.90;51.10;;;;;;4921712;29;20761;-81
2022/09/05 12:25:51;;;;;;;1.97;1.80;;;24.90;51.10;;;;;;4921261;29;20466;-80
2022/09/05 12:28:57;;;;;;;2.10;1.90;;;24.90;51.00;;;;;;4937208;29;20426;-80
2022/09/05 12:31:59;;;;;;;3.00;2.07;;;24.90;51.00;;;;;;4937096;29;20408;-80
2022/09/05 12:34:49;;;;;;;3.03;1.80;;;24.90;51.00;;;;;;4922191;29;20423;-81
2022/09/05 12:38:07;;;;;;;1.80;1.70;;;24.90;50.90;;;;;;4937493;29;20400;-80
2022/09/05 12:40:51;;;;;;;1.70;1.60;;;24.90;50.80;;;;;;4977839;28;20415;-81
2022/09/05 12:50:22;;;;;;;1.60;1.50;;;24.90;50.80;;;;;;4974775;28;20394;-80
2022/09/05 12:53:34;;;;;;;1.80;1.70;;;24.90;50.80;;;;;;4959917;29;20429;-80
2022/09/05 12:56:37;;;;;;;2.40;2.00;;;24.90;50.80;;;;;;4902167;29;20413;-80
2022/09/05 12:59:21;;;;;;;1.97;1.70;;;24.90;50.80;;;;;;4880751;29;20415;-80
2022/09/05 13:02:05;;;;;;;4.53;1.80;;;24.90;50.80;;;;;;4883694;29;20409;-81
2022/09/05 13:04:36;;;;;;;2.23;2.10;;;24.90;50.80;;;;;;4899176;29;20457;-81
2022/09/05 13:07:54;;;;;;;1.90;1.80;;;24.90;50.80;;;;;;4883474;29;20738;-81
2022/09/05 13:10:40;;;;;;;1.63;1.50;;;24.90;50.70;;;;;;4895911;29;20446;-79
2022/09/05 13:13:43;;;;;;;1.90;1.53;;;24.90;50.70;;;;;;4894050;29;20421;-80
2022/09/05 13:16:22;;;;;;;3.10;1.70;;;24.90;50.50;;;;;;4889212;29;20413;-79
2022/09/05 13:19:09;;;;;;;1.40;1.30;;;24.90;50.50;;;;;;4951217;29;20414;-79
2022/09/05 13:21:51;;;;;;;3.00;1.70;;;24.90;50.40;;;;;;4935636;29;20407;-79
2022/09/05 13:24:33;;;;;;;2.77;2.03;;;24.90;50.30;;;;;;4951653;29;20943;-79
2022/09/05 13:27:24;;;;;;;1.87;1.77;;;24.90;50.10;;;;;;4952423;29;20459;-80
2022/09/05 13:29:57;;;;;;;1.90;1.80;;;24.90;50.00;;;;;;4936168;29;20418;-81
2022/09/05 13:32:32;;;;;;;1.97;1.73;;;24.90;50.00;;;;;;5009196;28;20415;-80
2022/09/05 13:35:27;;;;;;;2.50;1.70;;;24.90;49.90;;;;;;5014645;28;20415;-80
2022/09/05 13:38:07;;;;;;;2.30;1.50;;;24.90;50.00;;;;;;5014939;28;20420;-80
2022/09/05 13:40:47;;;;;;;1.50;1.40;;;24.90;49.90;;;;;;5031581;28;20884;-80
2022/09/05 13:43:26;;;;;;;2.77;2.03;;;24.90;49.90;;;;;;5015208;28;20454;-80
2022/09/05 13:46:09;;;;;;;2.00;1.60;;;24.90;49.90;;;;;;5014244;28;20418;-81
2022/09/05 13:48:52;;;;;;;2.10;1.60;;;24.90;49.90;;;;;;5015713;28;20514;-81
2022/09/05 13:51:42;;;;;;;1.90;1.77;;;25.00;50.00;;;;;;5014653;28;20407;-81
2022/09/05 13:54:11;;;;;;;2.57;1.80;;;24.90;49.90;;;;;;5015304;28;20474;-80
2022/09/05 13:56:52;;;;;;;2.00;1.80;;;24.90;49.80;;;;;;5014945;28;20447;-79
2022/09/05 13:59:41;;;;;;;2.20;1.43;;;25.00;50.00;;;;;;5014997;28;20412;-83
2022/09/05 14:02:54;;;;;;;2.13;1.87;;;25.00;50.00;;;;;;5014029;28;20418;-82
2022/09/05 14:05:59;;;;;;;1.57;1.47;;;25.00;49.90;;;;;;5014662;28;20423;-82
2022/09/05 14:09:03;;;;;;;1.80;1.70;;;24.90;49.80;;;;;;4984525;28;20454;-81
2022/09/05 14:11:50;;;;;;;1.80;1.50;;;25.00;49.90;;;;;;5010335;28;20439;-82
2022/09/05 14:14:55;;;;;;;1.90;1.63;;;24.90;49.80;;;;;;5011468;28;20726;-84
2022/09/05 14:17:21;;;;;;;2.10;1.90;;;24.90;49.70;;;;;;4930523;29;20426;-83
2022/09/05 14:23:08;;;;;;;1.87;1.73;;;24.90;49.70;;;;;;4991427;28;20219;-83
2022/09/05 14:26:04;;;;;;;2.20;2.00;;;24.90;49.80;;;;;;5028049;28;20403;-83
2022/09/05 14:32:21;;;;;;;2.07;1.87;;;24.90;49.70;;;;;;5028728;28;20879;-83
2022/09/05 14:35:29;;;;;;;4.67;1.57;;;24.90;49.70;;;;;;5026731;28;20412;-81
2022/09/05 14:38:16;;;;;;;1.90;1.70;;;24.90;49.70;;;;;;4952144;29;20451;-82
2022/09/05 14:41:00;;;;;;;2.07;1.60;;;24.90;49.70;;;;;;4952459;29;20430;-82
2022/09/05 14:43:50;;;;;;;1.97;1.80;;;24.90;49.70;;;;;;4954423;29;20488;-82
2022/09/05 14:46:34;;;;;;;2.20;1.90;;;24.90;49.70;;;;;;4934275;29;20909;-83
2022/09/05 14:49:24;;;;;;;1.83;1.63;;;24.90;49.70;;;;;;4935932;29;20507;-82
2022/09/05 14:51:53;;;;;;;1.90;1.63;;;24.90;49.70;;;;;;4935158;29;20430;-82
2022/09/05 14:54:52;;;;;;;2.23;1.80;;;24.90;49.70;;;;;;4949652;29;20477;-81
2022/09/05 14:57:23;;;;;;;2.00;1.77;;;25.00;49.80;;;;;;4935064;29;20423;-82
2022/09/05 15:03:07;;;;;;;1.87;1.67;;;25.00;49.80;;;;;;4947657;29;20422;-82
2022/09/05 15:05:50;;;;;;;1.83;1.73;;;25.00;49.80;;;;;;4951478;29;20849;-82
2022/09/05 15:08:25;;;;;;;2.17;1.60;;;25.00;49.80;;;;;;4936055;29;20441;-81
2022/09/05 15:11:01;;;;;;;2.00;1.80;;;25.00;49.70;;;;;;4935714;29;20435;-82
2022/09/05 15:13:30;;;;;;;2.53;1.70;;;25.00;49.60;;;;;;4936772;29;20425;-82
2022/09/05 15:16:09;;;;;;;2.90;2.00;;;25.00;49.60;;;;;;5009788;28;20415;-82
2022/09/05 15:18:43;;;;;;;1.50;1.40;;;25.00;49.60;;;;;;5035517;28;20380;-80
2022/09/05 15:21:37;;;;;;;1.70;1.60;;;25.00;49.60;;;;;;5033343;28;20477;-80
2022/09/05 15:24:22;;;;;;;2.17;1.60;;;25.00;49.60;;;;;;5009163;28;20748;-80
2022/09/05 15:27:14;;;;;;;2.50;1.87;;;25.00;49.60;;;;;;5033654;28;20400;-80
2022/09/05 15:29:52;;;;;;;1.80;1.63;;;25.00;49.50;;;;;;5014494;28;20412;-79
2022/09/05 15:32:27;;;;;;;1.90;1.70;;;25.00;49.50;;;;;;5033871;28;20403;-79
2022/09/05 15:35:02;;;;;;;2.00;1.80;;;25.00;49.50;;;;;;5034921;28;20430;-80
2022/09/05 15:37:42;;;;;;;1.93;1.70;;;25.00;49.50;;;;;;5034859;28;20384;-80
2022/09/05 15:40:15;;;;;;;1.93;1.80;;;25.00;49.30;;;;;;5032395;28;20466;-81
2022/09/05 15:42:55;;;;;;;2.20;2.00;;;25.00;49.30;;;;;;5034278;28;20419;-80
2022/09/05 15:45:31;;;;;;;1.97;1.87;;;25.00;49.40;;;;;;5017318;28;20411;-80
2022/09/05 15:48:20;;;;;;;1.53;1.40;;;25.00;49.40;;;;;;5033222;28;20393;-80
2022/09/05 15:50:54;;;;;;;2.07;1.57;;;25.00;49.40;;;;;;5031289;28;20523;-80
2022/09/05 15:53:30;;;;;;;1.50;1.40;;;25.00;49.40;;;;;;5013835;28;20506;-80
2022/09/05 15:56:31;;;;;;;1.70;1.60;;;25.00;49.40;;;;;;5030659;28;20399;-80
2022/09/05 15:59:10;;;;;;;1.83;1.73;;;25.00;49.40;;;;;;5027284;28;20418;-80